sensor_id;sensor_type;location;lat;lon;timestamp;P1;durP1;ratioP1;P2;durP2;ratioP2
8171;SDS011;4127;47.908;10.850;2024-01-30T00:01:56;2.07;;;1.90;;
8171;SDS011;4127;47.908;10.850;2024-01-30T00:04:31;2.10;;;2.00;;
8171;SDS011;4127;47.908;10.850;2024-01-30T00:07:04;1.93;;;1.70;;
8171;SDS011;4127;47.908;10.850;2024-01-30T00:09:34;1.87;;;1.77;;
8171;SDS011;4127;47.908;10.850;2024-01-30T00:12:01;2.00;;;1.90;;
8171;SDS011;4127;47.908;10.850;2024-01-30T00:14:28;2.00;;;1.80;;
8171;SDS011;4127;47.908;10.850;2024-01-30T00:16:55;2.53;;;2.33;;
8171;SDS011;4127;47.908;10.850;2024-01-30T00:19:22;2.10;;;2.00;;
8171;SDS011;4127;47.908;10.850;2024-01-30T00:21:49;2.37;;;2.17;;
8171;SDS011;4127;47.908;10.850;2024-01-30T00:24:25;2.70;;;2.47;;
8171;SDS011;4127;47.908;10.850;2024-01-30T00:27:05;3.10;;;2.40;;
8171;SDS011;4127;47.908;10.850;2024-01-30T00:29:32;3.60;;;2.70;;
8171;SDS011;4127;47.908;10.850;2024-01-30T00:32:00;4.97;;;3.60;;
8171;SDS011;4127;47.908;10.850;2024-01-30T00:34:37;4.27;;;3.40;;
8171;SDS011;4127;47.908;10.850;2024-01-30T00:37:10;3.60;;;2.90;;
8171;SDS011;4127;47.908;10.850;2024-01-30T00:39:38;2.83;;;2.47;;
8171;SDS011;4127;47.908;10.850;2024-01-30T00:42:05;2.07;;;1.90;;
8171;SDS011;4127;47.908;10.850;2024-01-30T00:44:39;2.53;;;1.90;;
8171;SDS011;4127;47.908;10.850;2024-01-30T00:47:06;1.80;;;1.70;;
8171;SDS011;4127;47.908;10.850;2024-01-30T00:49:33;2.10;;;1.90;;
8171;SDS011;4127;47.908;10.850;2024-01-30T00:52:03;2.30;;;2.10;;
8171;SDS011;4127;47.908;10.850;2024-01-30T00:54:31;2.27;;;2.07;;
8171;SDS011;4127;47.908;10.850;2024-01-30T00:57:00;1.87;;;1.77;;
8171;SDS011;4127;47.908;10.850;2024-01-30T00:59:31;1.73;;;1.63;;
8171;SDS011;4127;47.908;10.850;2024-01-30T01:02:01;2.03;;;1.83;;
8171;SDS011;4127;47.908;10.850;2024-01-30T01:04:28;2.00;;;1.90;;
8171;SDS011;4127;47.908;10.850;2024-01-30T01:06:57;1.73;;;1.63;;
8171;SDS011;4127;47.908;10.850;2024-01-30T01:09:28;1.97;;;1.87;;
8171;SDS011;4127;47.908;10.850;2024-01-30T01:11:54;2.10;;;1.90;;
8171;SDS011;4127;47.908;10.850;2024-01-30T01:14:21;1.90;;;1.80;;
8171;SDS011;4127;47.908;10.850;2024-01-30T01:16:49;2.00;;;1.77;;
8171;SDS011;4127;47.908;10.850;2024-01-30T01:19:16;1.90;;;1.80;;
8171;SDS011;4127;47.908;10.850;2024-01-30T01:21:43;1.73;;;1.63;;
8171;SDS011;4127;47.908;10.850;2024-01-30T01:24:21;1.80;;;1.70;;
8171;SDS011;4127;47.908;10.850;2024-01-30T01:26:52;2.07;;;1.87;;
8171;SDS011;4127;47.908;10.850;2024-01-30T01:29:24;1.90;;;1.80;;
8171;SDS011;4127;47.908;10.850;2024-01-30T01:31:55;2.30;;;2.10;;
8171;SDS011;4127;47.908;10.850;2024-01-30T01:34:24;1.80;;;1.70;;
8171;SDS011;4127;47.908;10.850;2024-01-30T01:36:56;2.20;;;1.80;;
8171;SDS011;4127;47.908;10.850;2024-01-30T01:39:24;1.87;;;1.77;;
8171;SDS011;4127;47.908;10.850;2024-01-30T01:41:51;2.23;;;2.03;;
8171;SDS011;4127;47.908;10.850;2024-01-30T01:44:21;1.57;;;1.47;;
8171;SDS011;4127;47.908;10.850;2024-01-30T01:46:51;1.90;;;1.80;;
8171;SDS011;4127;47.908;10.850;2024-01-30T01:49:20;2.13;;;1.70;;
8171;SDS011;4127;47.908;10.850;2024-01-30T01:51:51;1.80;;;1.70;;
8171;SDS011;4127;47.908;10.850;2024-01-30T01:54:20;1.80;;;1.70;;
8171;SDS011;4127;47.908;10.850;2024-01-30T01:56:48;1.80;;;1.70;;
8171;SDS011;4127;47.908;10.850;2024-01-30T01:59:17;2.40;;;1.70;;
8171;SDS011;4127;47.908;10.850;2024-01-30T02:01:51;1.90;;;1.80;;
8171;SDS011;4127;47.908;10.850;2024-01-30T02:04:22;1.90;;;1.80;;
8171;SDS011;4127;47.908;10.850;2024-01-30T02:06:49;1.53;;;1.43;;
8171;SDS011;4127;47.908;10.850;2024-01-30T02:09:28;1.97;;;1.87;;
8171;SDS011;4127;47.908;10.850;2024-01-30T02:11:55;2.03;;;1.87;;
8171;SDS011;4127;47.908;10.850;2024-01-30T02:14:28;1.90;;;1.70;;
8171;SDS011;4127;47.908;10.850;2024-01-30T02:16:56;1.77;;;1.67;;
8171;SDS011;4127;47.908;10.850;2024-01-30T02:19:27;1.93;;;1.83;;
8171;SDS011;4127;47.908;10.850;2024-01-30T02:21:56;2.10;;;1.90;;
8171;SDS011;4127;47.908;10.850;2024-01-30T02:24:26;1.70;;;1.60;;
8171;SDS011;4127;47.908;10.850;2024-01-30T02:26:53;1.80;;;1.70;;
8171;SDS011;4127;47.908;10.850;2024-01-30T02:29:22;2.00;;;1.80;;
8171;SDS011;4127;47.908;10.850;2024-01-30T02:31:59;1.80;;;1.70;;
8171;SDS011;4127;47.908;10.850;2024-01-30T02:34:27;2.17;;;1.97;;
8171;SDS011;4127;47.908;10.850;2024-01-30T02:37:05;1.60;;;1.50;;
8171;SDS011;4127;47.908;10.850;2024-01-30T02:39:35;1.60;;;1.50;;
8171;SDS011;4127;47.908;10.850;2024-01-30T02:42:11;1.70;;;1.60;;
8171;SDS011;4127;47.908;10.850;2024-01-30T02:44:38;1.40;;;1.30;;
8171;SDS011;4127;47.908;10.850;2024-01-30T02:47:06;1.80;;;1.70;;
8171;SDS011;4127;47.908;10.850;2024-01-30T02:49:33;2.50;;;1.90;;
8171;SDS011;4127;47.908;10.850;2024-01-30T02:52:00;1.80;;;1.70;;
8171;SDS011;4127;47.908;10.850;2024-01-30T02:54:27;1.70;;;1.60;;
8171;SDS011;4127;47.908;10.850;2024-01-30T02:56:54;1.40;;;1.30;;
8171;SDS011;4127;47.908;10.850;2024-01-30T02:59:20;1.50;;;1.40;;
8171;SDS011;4127;47.908;10.850;2024-01-30T03:01:47;1.80;;;1.70;;
8171;SDS011;4127;47.908;10.850;2024-01-30T03:04:16;1.70;;;1.60;;
8171;SDS011;4127;47.908;10.850;2024-01-30T03:06:44;1.60;;;1.50;;
8171;SDS011;4127;47.908;10.850;2024-01-30T03:09:37;1.53;;;1.43;;
8171;SDS011;4127;47.908;10.850;2024-01-30T03:12:08;1.70;;;1.60;;
8171;SDS011;4127;47.908;10.850;2024-01-30T03:14:43;1.90;;;1.80;;
8171;SDS011;4127;47.908;10.850;2024-01-30T03:17:22;1.60;;;1.50;;
8171;SDS011;4127;47.908;10.850;2024-01-30T03:19:52;3.10;;;1.40;;
8171;SDS011;4127;47.908;10.850;2024-01-30T03:22:28;1.60;;;1.50;;
8171;SDS011;4127;47.908;10.850;2024-01-30T03:24:56;1.50;;;1.40;;
8171;SDS011;4127;47.908;10.850;2024-01-30T03:27:23;1.40;;;1.30;;
8171;SDS011;4127;47.908;10.850;2024-01-30T03:29:50;1.70;;;1.60;;
8171;SDS011;4127;47.908;10.850;2024-01-30T03:32:24;1.40;;;1.30;;
8171;SDS011;4127;47.908;10.850;2024-01-30T03:34:54;1.60;;;1.43;;
8171;SDS011;4127;47.908;10.850;2024-01-30T03:37:21;2.10;;;1.37;;
8171;SDS011;4127;47.908;10.850;2024-01-30T03:39:48;1.70;;;1.60;;
8171;SDS011;4127;47.908;10.850;2024-01-30T03:42:16;2.23;;;1.87;;
8171;SDS011;4127;47.908;10.850;2024-01-30T03:44:43;1.70;;;1.60;;
8171;SDS011;4127;47.908;10.850;2024-01-30T03:47:12;2.00;;;1.90;;
8171;SDS011;4127;47.908;10.850;2024-01-30T03:49:42;2.10;;;2.00;;
8171;SDS011;4127;47.908;10.850;2024-01-30T03:52:09;1.77;;;1.67;;
8171;SDS011;4127;47.908;10.850;2024-01-30T03:54:40;1.63;;;1.53;;
8171;SDS011;4127;47.908;10.850;2024-01-30T03:57:10;1.30;;;1.20;;
8171;SDS011;4127;47.908;10.850;2024-01-30T03:59:47;1.60;;;1.50;;
8171;SDS011;4127;47.908;10.850;2024-01-30T04:02:14;1.93;;;1.60;;
8171;SDS011;4127;47.908;10.850;2024-01-30T04:04:47;1.93;;;1.60;;
8171;SDS011;4127;47.908;10.850;2024-01-30T04:07:15;1.80;;;1.70;;
8171;SDS011;4127;47.908;10.850;2024-01-30T04:09:49;1.83;;;1.73;;
8171;SDS011;4127;47.908;10.850;2024-01-30T04:12:18;1.60;;;1.50;;
8171;SDS011;4127;47.908;10.850;2024-01-30T04:14:51;1.83;;;1.43;;
8171;SDS011;4127;47.908;10.850;2024-01-30T04:17:18;1.33;;;1.27;;
8171;SDS011;4127;47.908;10.850;2024-01-30T04:19:48;1.40;;;1.30;;
8171;SDS011;4127;47.908;10.850;2024-01-30T04:22:19;1.50;;;1.40;;
8171;SDS011;4127;47.908;10.850;2024-01-30T04:25:05;1.53;;;1.43;;
8171;SDS011;4127;47.908;10.850;2024-01-30T04:27:49;1.53;;;1.43;;
8171;SDS011;4127;47.908;10.850;2024-01-30T04:30:25;1.70;;;1.60;;
8171;SDS011;4127;47.908;10.850;2024-01-30T04:32:52;1.60;;;1.50;;
8171;SDS011;4127;47.908;10.850;2024-01-30T04:35:42;1.50;;;1.40;;
8171;SDS011;4127;47.908;10.850;2024-01-30T04:38:12;1.63;;;1.53;;
8171;SDS011;4127;47.908;10.850;2024-01-30T04:40:40;1.77;;;1.67;;
8171;SDS011;4127;47.908;10.850;2024-01-30T04:43:11;1.63;;;1.53;;
8171;SDS011;4127;47.908;10.850;2024-01-30T04:45:38;1.47;;;1.37;;
8171;SDS011;4127;47.908;10.850;2024-01-30T04:48:06;1.50;;;1.40;;
8171;SDS011;4127;47.908;10.850;2024-01-30T04:50:34;1.33;;;1.23;;
8171;SDS011;4127;47.908;10.850;2024-01-30T04:53:04;1.50;;;1.40;;
8171;SDS011;4127;47.908;10.850;2024-01-30T04:55:31;1.23;;;1.23;;
8171;SDS011;4127;47.908;10.850;2024-01-30T04:57:59;1.50;;;1.40;;
8171;SDS011;4127;47.908;10.850;2024-01-30T05:00:26;2.43;;;2.23;;
8171;SDS011;4127;47.908;10.850;2024-01-30T05:02:54;2.83;;;2.63;;
8171;SDS011;4127;47.908;10.850;2024-01-30T05:05:22;2.00;;;1.80;;
8171;SDS011;4127;47.908;10.850;2024-01-30T05:08:03;1.80;;;1.70;;
8171;SDS011;4127;47.908;10.850;2024-01-30T05:10:33;1.63;;;1.53;;
8171;SDS011;4127;47.908;10.850;2024-01-30T05:13:00;2.30;;;2.10;;
8171;SDS011;4127;47.908;10.850;2024-01-30T05:15:28;2.20;;;2.00;;
8171;SDS011;4127;47.908;10.850;2024-01-30T05:17:55;1.90;;;1.80;;
8171;SDS011;4127;47.908;10.850;2024-01-30T05:20:22;1.67;;;1.57;;
8171;SDS011;4127;47.908;10.850;2024-01-30T05:22:50;1.57;;;1.43;;
8171;SDS011;4127;47.908;10.850;2024-01-30T05:25:17;1.50;;;1.40;;
8171;SDS011;4127;47.908;10.850;2024-01-30T05:27:44;1.73;;;1.63;;
8171;SDS011;4127;47.908;10.850;2024-01-30T05:30:16;1.80;;;1.70;;
8171;SDS011;4127;47.908;10.850;2024-01-30T05:32:53;1.70;;;1.60;;
8171;SDS011;4127;47.908;10.850;2024-01-30T05:35:53;1.33;;;1.30;;
8171;SDS011;4127;47.908;10.850;2024-01-30T05:38:27;1.33;;;1.33;;
8171;SDS011;4127;47.908;10.850;2024-01-30T05:41:17;1.63;;;1.53;;
8171;SDS011;4127;47.908;10.850;2024-01-30T05:43:58;1.30;;;1.30;;
8171;SDS011;4127;47.908;10.850;2024-01-30T05:46:30;1.30;;;1.30;;
8171;SDS011;4127;47.908;10.850;2024-01-30T05:48:58;1.43;;;1.37;;
8171;SDS011;4127;47.908;10.850;2024-01-30T05:51:25;1.53;;;1.43;;
8171;SDS011;4127;47.908;10.850;2024-01-30T05:53:52;1.23;;;1.23;;
8171;SDS011;4127;47.908;10.850;2024-01-30T05:56:19;1.30;;;1.30;;
8171;SDS011;4127;47.908;10.850;2024-01-30T05:58:49;1.20;;;1.20;;
8171;SDS011;4127;47.908;10.850;2024-01-30T06:01:24;1.27;;;1.27;;
8171;SDS011;4127;47.908;10.850;2024-01-30T06:03:52;1.60;;;1.43;;
8171;SDS011;4127;47.908;10.850;2024-01-30T06:06:19;1.50;;;1.40;;
8171;SDS011;4127;47.908;10.850;2024-01-30T06:08:49;1.73;;;1.63;;
8171;SDS011;4127;47.908;10.850;2024-01-30T06:11:16;1.43;;;1.33;;
8171;SDS011;4127;47.908;10.850;2024-01-30T06:13:43;1.50;;;1.40;;
8171;SDS011;4127;47.908;10.850;2024-01-30T06:16:10;1.27;;;1.20;;
8171;SDS011;4127;47.908;10.850;2024-01-30T06:18:38;1.70;;;1.60;;
8171;SDS011;4127;47.908;10.850;2024-01-30T06:21:15;1.40;;;1.37;;
8171;SDS011;4127;47.908;10.850;2024-01-30T06:23:42;1.50;;;1.40;;
8171;SDS011;4127;47.908;10.850;2024-01-30T06:26:16;1.30;;;1.30;;
8171;SDS011;4127;47.908;10.850;2024-01-30T06:28:43;1.70;;;1.60;;
8171;SDS011;4127;47.908;10.850;2024-01-30T06:31:10;1.50;;;1.40;;
8171;SDS011;4127;47.908;10.850;2024-01-30T06:33:41;1.50;;;1.40;;
8171;SDS011;4127;47.908;10.850;2024-01-30T06:36:14;1.27;;;1.27;;
8171;SDS011;4127;47.908;10.850;2024-01-30T06:38:41;1.47;;;1.37;;
8171;SDS011;4127;47.908;10.850;2024-01-30T06:41:08;1.40;;;1.30;;
8171;SDS011;4127;47.908;10.850;2024-01-30T06:43:41;1.50;;;1.40;;
8171;SDS011;4127;47.908;10.850;2024-01-30T06:46:15;1.30;;;1.20;;
8171;SDS011;4127;47.908;10.850;2024-01-30T06:48:44;1.30;;;1.30;;
8171;SDS011;4127;47.908;10.850;2024-01-30T06:51:12;1.50;;;1.40;;
8171;SDS011;4127;47.908;10.850;2024-01-30T06:53:43;1.40;;;1.40;;
8171;SDS011;4127;47.908;10.850;2024-01-30T06:56:10;1.00;;;1.00;;
8171;SDS011;4127;47.908;10.850;2024-01-30T06:58:37;1.53;;;1.43;;
8171;SDS011;4127;47.908;10.850;2024-01-30T07:01:06;1.20;;;1.20;;
8171;SDS011;4127;47.908;10.850;2024-01-30T07:03:36;1.40;;;1.40;;
8171;SDS011;4127;47.908;10.850;2024-01-30T07:06:04;1.60;;;1.50;;
8171;SDS011;4127;47.908;10.850;2024-01-30T07:08:31;1.30;;;1.30;;
8171;SDS011;4127;47.908;10.850;2024-01-30T07:10:58;1.67;;;1.57;;
8171;SDS011;4127;47.908;10.850;2024-01-30T07:13:27;1.13;;;1.13;;
8171;SDS011;4127;47.908;10.850;2024-01-30T07:15:55;1.40;;;1.30;;
8171;SDS011;4127;47.908;10.850;2024-01-30T07:18:22;1.53;;;1.40;;
8171;SDS011;4127;47.908;10.850;2024-01-30T07:20:49;1.53;;;1.43;;
8171;SDS011;4127;47.908;10.850;2024-01-30T07:23:16;1.43;;;1.33;;
8171;SDS011;4127;47.908;10.850;2024-01-30T07:25:44;1.23;;;1.23;;
8171;SDS011;4127;47.908;10.850;2024-01-30T07:28:23;1.33;;;1.30;;
8171;SDS011;4127;47.908;10.850;2024-01-30T07:30:51;1.50;;;1.40;;
8171;SDS011;4127;47.908;10.850;2024-01-30T07:33:20;1.37;;;1.30;;
8171;SDS011;4127;47.908;10.850;2024-01-30T07:35:47;1.70;;;1.60;;
8171;SDS011;4127;47.908;10.850;2024-01-30T07:38:14;1.50;;;1.40;;
8171;SDS011;4127;47.908;10.850;2024-01-30T07:40:46;1.50;;;1.40;;
8171;SDS011;4127;47.908;10.850;2024-01-30T07:43:14;1.60;;;1.50;;
8171;SDS011;4127;47.908;10.850;2024-01-30T07:45:41;1.47;;;1.47;;
8171;SDS011;4127;47.908;10.850;2024-01-30T07:48:08;1.43;;;1.20;;
8171;SDS011;4127;47.908;10.850;2024-01-30T07:50:35;1.60;;;1.50;;
8171;SDS011;4127;47.908;10.850;2024-01-30T07:53:11;1.40;;;1.27;;
8171;SDS011;4127;47.908;10.850;2024-01-30T07:55:38;1.30;;;1.30;;
8171;SDS011;4127;47.908;10.850;2024-01-30T07:58:05;1.60;;;1.50;;
8171;SDS011;4127;47.908;10.850;2024-01-30T08:00:32;1.57;;;1.40;;
8171;SDS011;4127;47.908;10.850;2024-01-30T08:02:59;1.50;;;1.40;;
8171;SDS011;4127;47.908;10.850;2024-01-30T08:05:26;1.40;;;1.30;;
8171;SDS011;4127;47.908;10.850;2024-01-30T08:07:53;1.30;;;1.30;;
8171;SDS011;4127;47.908;10.850;2024-01-30T08:10:20;1.53;;;1.43;;
8171;SDS011;4127;47.908;10.850;2024-01-30T08:12:47;1.30;;;1.20;;
8171;SDS011;4127;47.908;10.850;2024-01-30T08:15:14;1.60;;;1.50;;
8171;SDS011;4127;47.908;10.850;2024-01-30T08:17:41;1.10;;;1.10;;
8171;SDS011;4127;47.908;10.850;2024-01-30T08:20:08;1.50;;;1.30;;
8171;SDS011;4127;47.908;10.850;2024-01-30T08:22:38;1.40;;;1.40;;
8171;SDS011;4127;47.908;10.850;2024-01-30T08:25:06;1.20;;;1.20;;
8171;SDS011;4127;47.908;10.850;2024-01-30T08:27:34;1.20;;;1.20;;
8171;SDS011;4127;47.908;10.850;2024-01-30T08:30:02;1.50;;;1.40;;
8171;SDS011;4127;47.908;10.850;2024-01-30T08:32:29;1.27;;;1.27;;
8171;SDS011;4127;47.908;10.850;2024-01-30T08:34:56;1.30;;;1.30;;
8171;SDS011;4127;47.908;10.850;2024-01-30T08:37:24;1.50;;;1.40;;
8171;SDS011;4127;47.908;10.850;2024-01-30T08:39:50;2.03;;;1.83;;
8171;SDS011;4127;47.908;10.850;2024-01-30T08:42:17;2.00;;;1.50;;
8171;SDS011;4127;47.908;10.850;2024-01-30T08:44:49;2.00;;;1.90;;
8171;SDS011;4127;47.908;10.850;2024-01-30T08:47:17;1.57;;;1.47;;
8171;SDS011;4127;47.908;10.850;2024-01-30T08:49:45;1.60;;;1.50;;
8171;SDS011;4127;47.908;10.850;2024-01-30T08:52:12;1.40;;;1.30;;
8171;SDS011;4127;47.908;10.850;2024-01-30T08:54:39;1.40;;;1.30;;
8171;SDS011;4127;47.908;10.850;2024-01-30T08:57:05;1.40;;;1.30;;
8171;SDS011;4127;47.908;10.850;2024-01-30T08:59:32;1.40;;;1.30;;
8171;SDS011;4127;47.908;10.850;2024-01-30T09:02:00;1.10;;;1.10;;
8171;SDS011;4127;47.908;10.850;2024-01-30T09:04:37;1.43;;;1.40;;
8171;SDS011;4127;47.908;10.850;2024-01-30T09:07:05;1.50;;;1.40;;
8171;SDS011;4127;47.908;10.850;2024-01-30T09:09:39;1.50;;;1.40;;
8171;SDS011;4127;47.908;10.850;2024-01-30T09:12:07;1.40;;;1.30;;
8171;SDS011;4127;47.908;10.850;2024-01-30T09:14:36;1.63;;;1.20;;
8171;SDS011;4127;47.908;10.850;2024-01-30T09:17:04;1.40;;;1.30;;
8171;SDS011;4127;47.908;10.850;2024-01-30T09:19:31;1.20;;;1.20;;
8171;SDS011;4127;47.908;10.850;2024-01-30T09:21:58;1.30;;;1.30;;
8171;SDS011;4127;47.908;10.850;2024-01-30T09:24:26;1.40;;;1.30;;
8171;SDS011;4127;47.908;10.850;2024-01-30T09:26:54;1.10;;;1.10;;
8171;SDS011;4127;47.908;10.850;2024-01-30T09:29:21;1.17;;;1.10;;
8171;SDS011;4127;47.908;10.850;2024-01-30T09:31:48;2.07;;;1.97;;
8171;SDS011;4127;47.908;10.850;2024-01-30T09:34:15;2.70;;;2.50;;
8171;SDS011;4127;47.908;10.850;2024-01-30T09:36:42;3.37;;;3.07;;
8171;SDS011;4127;47.908;10.850;2024-01-30T09:39:09;2.00;;;1.90;;
8171;SDS011;4127;47.908;10.850;2024-01-30T09:41:44;1.80;;;1.70;;
8171;SDS011;4127;47.908;10.850;2024-01-30T09:44:15;1.60;;;1.50;;
8171;SDS011;4127;47.908;10.850;2024-01-30T09:46:43;1.70;;;1.60;;
8171;SDS011;4127;47.908;10.850;2024-01-30T09:49:13;1.80;;;1.70;;
8171;SDS011;4127;47.908;10.850;2024-01-30T09:51:43;2.13;;;2.00;;
8171;SDS011;4127;47.908;10.850;2024-01-30T09:54:13;2.50;;;2.30;;
8171;SDS011;4127;47.908;10.850;2024-01-30T09:56:41;2.37;;;2.17;;
8171;SDS011;4127;47.908;10.850;2024-01-30T09:59:08;5.63;;;4.43;;
8171;SDS011;4127;47.908;10.850;2024-01-30T10:01:35;13.07;;;10.87;;
8171;SDS011;4127;47.908;10.850;2024-01-30T10:04:03;9.13;;;7.10;;
8171;SDS011;4127;47.908;10.850;2024-01-30T10:06:31;7.17;;;6.37;;
8171;SDS011;4127;47.908;10.850;2024-01-30T10:08:58;3.13;;;2.70;;
8171;SDS011;4127;47.908;10.850;2024-01-30T10:11:25;2.93;;;2.20;;
8171;SDS011;4127;47.908;10.850;2024-01-30T10:13:51;2.63;;;2.20;;
8171;SDS011;4127;47.908;10.850;2024-01-30T10:16:18;1.60;;;1.50;;
8171;SDS011;4127;47.908;10.850;2024-01-30T10:18:45;1.80;;;1.70;;
8171;SDS011;4127;47.908;10.850;2024-01-30T10:21:12;1.50;;;1.40;;
8171;SDS011;4127;47.908;10.850;2024-01-30T10:23:39;3.07;;;1.80;;
8171;SDS011;4127;47.908;10.850;2024-01-30T10:26:07;1.73;;;1.63;;
8171;SDS011;4127;47.908;10.850;2024-01-30T10:28:34;1.57;;;1.47;;
8171;SDS011;4127;47.908;10.850;2024-01-30T10:31:01;1.60;;;1.50;;
8171;SDS011;4127;47.908;10.850;2024-01-30T10:33:32;2.13;;;1.77;;
8171;SDS011;4127;47.908;10.850;2024-01-30T10:36:00;2.23;;;1.80;;
8171;SDS011;4127;47.908;10.850;2024-01-30T10:38:31;3.27;;;2.00;;
8171;SDS011;4127;47.908;10.850;2024-01-30T10:41:00;2.07;;;1.97;;
8171;SDS011;4127;47.908;10.850;2024-01-30T10:43:36;1.90;;;1.80;;
8171;SDS011;4127;47.908;10.850;2024-01-30T10:46:14;2.10;;;1.80;;
8171;SDS011;4127;47.908;10.850;2024-01-30T10:48:57;2.20;;;2.00;;
8171;SDS011;4127;47.908;10.850;2024-01-30T10:51:27;4.10;;;2.70;;
8171;SDS011;4127;47.908;10.850;2024-01-30T10:53:55;3.50;;;3.20;;
8171;SDS011;4127;47.908;10.850;2024-01-30T10:56:24;4.10;;;2.90;;
8171;SDS011;4127;47.908;10.850;2024-01-30T10:58:52;4.10;;;2.67;;
8171;SDS011;4127;47.908;10.850;2024-01-30T11:01:20;2.80;;;2.60;;
8171;SDS011;4127;47.908;10.850;2024-01-30T11:03:51;3.23;;;2.93;;
8171;SDS011;4127;47.908;10.850;2024-01-30T11:06:24;2.50;;;2.30;;
8171;SDS011;4127;47.908;10.850;2024-01-30T11:09:01;2.90;;;2.60;;
8171;SDS011;4127;47.908;10.850;2024-01-30T11:14:16;4.00;;;3.60;;
8171;SDS011;4127;47.908;10.850;2024-01-30T11:16:43;9.90;;;6.10;;
8171;SDS011;4127;47.908;10.850;2024-01-30T11:19:12;9.30;;;6.37;;
8171;SDS011;4127;47.908;10.850;2024-01-30T11:21:42;8.57;;;5.70;;
8171;SDS011;4127;47.908;10.850;2024-01-30T11:24:09;8.90;;;6.77;;
8171;SDS011;4127;47.908;10.850;2024-01-30T11:26:35;7.47;;;6.00;;
8171;SDS011;4127;47.908;10.850;2024-01-30T11:29:03;5.70;;;4.57;;
8171;SDS011;4127;47.908;10.850;2024-01-30T11:31:31;6.03;;;4.63;;
8171;SDS011;4127;47.908;10.850;2024-01-30T11:33:58;7.47;;;5.40;;
8171;SDS011;4127;47.908;10.850;2024-01-30T11:36:25;6.57;;;5.23;;
8171;SDS011;4127;47.908;10.850;2024-01-30T11:38:54;5.97;;;4.73;;
8171;SDS011;4127;47.908;10.850;2024-01-30T11:41:21;4.90;;;4.40;;
8171;SDS011;4127;47.908;10.850;2024-01-30T11:43:53;6.00;;;5.20;;
8171;SDS011;4127;47.908;10.850;2024-01-30T11:46:20;6.10;;;4.37;;
8171;SDS011;4127;47.908;10.850;2024-01-30T11:48:47;5.20;;;4.70;;
8171;SDS011;4127;47.908;10.850;2024-01-30T11:51:15;5.53;;;4.53;;
8171;SDS011;4127;47.908;10.850;2024-01-30T11:53:44;8.43;;;4.77;;
8171;SDS011;4127;47.908;10.850;2024-01-30T11:56:15;4.73;;;3.97;;
8171;SDS011;4127;47.908;10.850;2024-01-30T11:58:42;5.37;;;4.67;;
8171;SDS011;4127;47.908;10.850;2024-01-30T12:01:10;4.80;;;4.00;;
8171;SDS011;4127;47.908;10.850;2024-01-30T12:03:38;4.40;;;4.00;;
8171;SDS011;4127;47.908;10.850;2024-01-30T12:06:05;5.17;;;3.80;;
8171;SDS011;4127;47.908;10.850;2024-01-30T12:08:33;4.20;;;3.60;;
8171;SDS011;4127;47.908;10.850;2024-01-30T12:11:00;4.23;;;3.50;;
8171;SDS011;4127;47.908;10.850;2024-01-30T12:13:31;4.30;;;3.60;;
8171;SDS011;4127;47.908;10.850;2024-01-30T12:15:59;4.43;;;3.43;;
8171;SDS011;4127;47.908;10.850;2024-01-30T12:18:27;3.23;;;2.93;;
8171;SDS011;4127;47.908;10.850;2024-01-30T12:20:57;5.50;;;4.00;;
8171;SDS011;4127;47.908;10.850;2024-01-30T12:23:28;5.40;;;3.70;;
8171;SDS011;4127;47.908;10.850;2024-01-30T12:25:56;3.37;;;3.00;;
8171;SDS011;4127;47.908;10.850;2024-01-30T12:28:23;3.77;;;2.80;;
8171;SDS011;4127;47.908;10.850;2024-01-30T12:30:51;3.53;;;2.83;;
8171;SDS011;4127;47.908;10.850;2024-01-30T12:33:28;3.87;;;3.27;;
8171;SDS011;4127;47.908;10.850;2024-01-30T12:35:56;3.20;;;2.90;;
8171;SDS011;4127;47.908;10.850;2024-01-30T12:38:29;4.53;;;3.23;;
8171;SDS011;4127;47.908;10.850;2024-01-30T12:40:56;3.17;;;2.77;;
8171;SDS011;4127;47.908;10.850;2024-01-30T12:43:24;3.40;;;2.60;;
8171;SDS011;4127;47.908;10.850;2024-01-30T12:46:03;2.67;;;2.47;;
8171;SDS011;4127;47.908;10.850;2024-01-30T12:48:30;2.20;;;2.10;;
8171;SDS011;4127;47.908;10.850;2024-01-30T12:50:58;2.80;;;1.80;;
8171;SDS011;4127;47.908;10.850;2024-01-30T12:53:25;1.70;;;1.60;;
8171;SDS011;4127;47.908;10.850;2024-01-30T12:55:52;2.10;;;1.90;;
8171;SDS011;4127;47.908;10.850;2024-01-30T12:58:20;1.77;;;1.60;;
8171;SDS011;4127;47.908;10.850;2024-01-30T13:00:48;2.40;;;2.20;;
8171;SDS011;4127;47.908;10.850;2024-01-30T13:03:15;2.60;;;2.40;;
8171;SDS011;4127;47.908;10.850;2024-01-30T13:05:42;4.47;;;3.90;;
8171;SDS011;4127;47.908;10.850;2024-01-30T13:08:09;4.20;;;3.77;;
8171;SDS011;4127;47.908;10.850;2024-01-30T13:10:36;3.67;;;2.90;;
8171;SDS011;4127;47.908;10.850;2024-01-30T13:13:03;2.83;;;2.63;;
8171;SDS011;4127;47.908;10.850;2024-01-30T13:15:34;2.87;;;2.47;;
8171;SDS011;4127;47.908;10.850;2024-01-30T13:18:01;2.83;;;2.40;;
8171;SDS011;4127;47.908;10.850;2024-01-30T13:20:29;2.70;;;2.50;;
8171;SDS011;4127;47.908;10.850;2024-01-30T13:22:56;2.70;;;2.47;;
8171;SDS011;4127;47.908;10.850;2024-01-30T13:25:23;3.97;;;2.83;;
8171;SDS011;4127;47.908;10.850;2024-01-30T13:27:50;5.10;;;4.30;;
8171;SDS011;4127;47.908;10.850;2024-01-30T13:30:16;3.50;;;3.20;;
8171;SDS011;4127;47.908;10.850;2024-01-30T13:32:44;3.00;;;2.70;;
8171;SDS011;4127;47.908;10.850;2024-01-30T13:35:11;3.53;;;2.83;;
8171;SDS011;4127;47.908;10.850;2024-01-30T13:37:38;4.03;;;3.60;;
8171;SDS011;4127;47.908;10.850;2024-01-30T13:40:05;2.77;;;2.57;;
8171;SDS011;4127;47.908;10.850;2024-01-30T13:42:37;3.10;;;2.80;;
8171;SDS011;4127;47.908;10.850;2024-01-30T13:45:03;2.67;;;2.47;;
8171;SDS011;4127;47.908;10.850;2024-01-30T13:47:31;2.93;;;2.10;;
8171;SDS011;4127;47.908;10.850;2024-01-30T13:49:57;3.03;;;2.77;;
8171;SDS011;4127;47.908;10.850;2024-01-30T13:52:25;2.77;;;2.53;;
8171;SDS011;4127;47.908;10.850;2024-01-30T13:55:00;3.47;;;2.63;;
8171;SDS011;4127;47.908;10.850;2024-01-30T13:57:27;3.50;;;3.20;;
8171;SDS011;4127;47.908;10.850;2024-01-30T13:59:54;4.20;;;3.80;;
8171;SDS011;4127;47.908;10.850;2024-01-30T14:02:21;3.80;;;3.30;;
8171;SDS011;4127;47.908;10.850;2024-01-30T14:04:48;5.30;;;4.73;;
8171;SDS011;4127;47.908;10.850;2024-01-30T14:07:15;3.87;;;3.20;;
8171;SDS011;4127;47.908;10.850;2024-01-30T14:09:45;3.40;;;3.10;;
8171;SDS011;4127;47.908;10.850;2024-01-30T14:12:12;3.20;;;2.77;;
8171;SDS011;4127;47.908;10.850;2024-01-30T14:14:39;4.30;;;3.40;;
8171;SDS011;4127;47.908;10.850;2024-01-30T14:17:06;3.00;;;2.70;;
8171;SDS011;4127;47.908;10.850;2024-01-30T14:19:34;3.30;;;3.00;;
8171;SDS011;4127;47.908;10.850;2024-01-30T14:22:02;4.70;;;4.20;;
8171;SDS011;4127;47.908;10.850;2024-01-30T14:24:29;2.83;;;2.60;;
8171;SDS011;4127;47.908;10.850;2024-01-30T14:26:57;2.37;;;2.17;;
8171;SDS011;4127;47.908;10.850;2024-01-30T14:29:23;2.50;;;2.30;;
8171;SDS011;4127;47.908;10.850;2024-01-30T14:31:50;3.00;;;2.77;;
8171;SDS011;4127;47.908;10.850;2024-01-30T14:34:17;3.30;;;3.00;;
8171;SDS011;4127;47.908;10.850;2024-01-30T14:36:45;3.07;;;2.63;;
8171;SDS011;4127;47.908;10.850;2024-01-30T14:39:12;3.90;;;3.50;;
8171;SDS011;4127;47.908;10.850;2024-01-30T14:41:39;8.80;;;7.90;;
8171;SDS011;4127;47.908;10.850;2024-01-30T14:44:06;6.00;;;5.40;;
8171;SDS011;4127;47.908;10.850;2024-01-30T14:46:34;5.90;;;5.40;;
8171;SDS011;4127;47.908;10.850;2024-01-30T14:49:02;5.33;;;4.83;;
8171;SDS011;4127;47.908;10.850;2024-01-30T14:51:32;4.03;;;3.73;;
8171;SDS011;4127;47.908;10.850;2024-01-30T14:53:59;4.60;;;3.30;;
8171;SDS011;4127;47.908;10.850;2024-01-30T14:56:27;4.27;;;3.87;;
8171;SDS011;4127;47.908;10.850;2024-01-30T14:58:54;4.27;;;2.90;;
8171;SDS011;4127;47.908;10.850;2024-01-30T15:01:21;2.80;;;2.60;;
8171;SDS011;4127;47.908;10.850;2024-01-30T15:03:49;4.30;;;3.90;;
8171;SDS011;4127;47.908;10.850;2024-01-30T15:06:18;5.97;;;4.17;;
8171;SDS011;4127;47.908;10.850;2024-01-30T15:08:45;4.73;;;4.03;;
8171;SDS011;4127;47.908;10.850;2024-01-30T15:11:12;4.00;;;3.70;;
8171;SDS011;4127;47.908;10.850;2024-01-30T15:13:38;4.03;;;3.70;;
8171;SDS011;4127;47.908;10.850;2024-01-30T15:16:08;6.40;;;5.50;;